Amber Lagoon — V7FS4 — position and weather

sailwx.info

Track history (hours):
 
Tides and Currents Weather Stations Pressure Air Temp Water Temp Dewpoint Dewpoint Depression Visibility Wind Speed Wind Dir Waves Ship Positions

Amber Lagoon

Last reported at 2017-Jun-20 14:29 UTC. Time now 2017-Jun-26 08:51 UTC.
Position N 27°60' W 016°25'.

Length 192 m; draft 10.9 m.

Type: Cargo ship. MMSI: 538090116.

Date/timePositionNaut miles runAvg speedWind from/ knotsBaromVisibWave heightAir tempDewpointWater temp
2017-Jun-20 14:29N 27°60' W 016°25'1413.7
2017-Jun-20 13:28N 28°09' W 016°13'813.7
2017-Jun-20 12:54N 28°15' W 016°07'513.7
2017-Jun-20 12:30N 28°19' W 016°03'713.6
2017-Jun-20 12:01N 28°24' W 015°58'713.0
2017-Jun-20 11:30N 28°29' W 015°53'612.7
2017-Jun-20 11:00N 28°34' W 015°49'612.4
2017-Jun-20 10:30N 28°39' W 015°45'613.0
2017-Jun-20 10:00N 28°46' W 015°44'612.8
2017-Jun-20 09:31N 28°52' W 015°42'713.0
2017-Jun-20 09:00N 28°58' W 015°40'613.0
2017-Jun-20 08:31N 29°04' W 015°38'612.9
2017-Jun-20 08:01N 29°11' W 015°36'712.9
2017-Jun-20 07:27N 29°18' W 015°35'1212.9
2017-Jun-20 06:33N 29°29' W 015°32'312.8
2017-Jun-20 06:18N 29°32' W 015°31'412.9
2017-Jun-20 06:01N 29°36' W 015°30'713.1
2017-Jun-20 05:30N 29°43' W 015°28'613.0
2017-Jun-20 05:00N 29°49' W 015°26'912.9
2017-Jun-20 04:20N 29°57' W 015°24'412.9
2017-Jun-20 04:00N 30°01' W 015°23'713.1
2017-Jun-20 03:30N 30°08' W 015°21'613.0
2017-Jun-20 03:00N 30°14' W 015°20'713.2
2017-Jun-20 02:30N 30°20' W 015°19'712.9
2017-Jun-20 01:59N 30°27' W 015°17'1012.9
2017-Jun-20 01:13N 30°37' W 015°14'313.1
2017-Jun-20 01:00N 30°39' W 015°13'2313.1
2017-Jun-19 23:15N 31°02' W 015°07'37812.9
2017-Jun-18 17:58N 37°10' W 013°25'613.1
2017-Jun-18 17:30N 37°16' W 013°23'713.0
2017-Jun-18 17:00N 37°22' W 013°21'613.1
2017-Jun-18 16:30N 37°28' W 013°20'712.9
2017-Jun-18 15:57N 37°35' W 013°18'613.0
2017-Jun-18 15:30N 37°41' W 013°16'713.2
2017-Jun-18 15:00N 37°47' W 013°14'1313.0
2017-Jun-18 14:00N 38°00' W 013°10'613.0
2017-Jun-18 13:30N 38°06' W 013°09'813.0
2017-Jun-18 12:55N 38°14' W 013°07'513.1
2017-Jun-18 12:30N 38°19' W 013°05'713.5
2017-Jun-18 12:00N 38°26' W 013°03'713.0
2017-Jun-18 11:30N 38°32' W 013°02'713.4
2017-Jun-18 11:00N 38°39' W 013°00'713.0
2017-Jun-18 10:30N 38°45' W 012°59'713.0
2017-Jun-18 10:00N 38°51' W 012°57'613.1
2017-Jun-18 09:30N 38°58' W 012°54'712.8
2017-Jun-18 09:00N 39°04' W 012°52'612.9
2017-Jun-18 08:30N 39°10' W 012°50'713.1
2017-Jun-18 08:00N 39°17' W 012°48'613.1
2017-Jun-18 07:30N 39°23' W 012°46'612.9
2017-Jun-18 07:00N 39°29' W 012°44'713.2
2017-Jun-18 06:30N 39°36' W 012°43'713.4
2017-Jun-18 06:00N 39°42' W 012°40'713.2
2017-Jun-18 05:30N 39°48' W 012°38'712.9
2017-Jun-18 05:00N 39°55' W 012°36'612.7
2017-Jun-18 04:30N 40°01' W 012°35'612.7
2017-Jun-18 04:00N 40°07' W 012°33'612.6
2017-Jun-18 03:30N 40°13' W 012°31'612.7
2017-Jun-18 03:00N 40°19' W 012°29'612.7
2017-Jun-18 02:30N 40°26' W 012°27'613.0
2017-Jun-18 02:00N 40°32' W 012°25'713.1
2017-Jun-18 01:30N 40°38' W 012°23'613.0
2017-Jun-18 01:00N 40°45' W 012°21'713.4
2017-Jun-18 00:30N 40°51' W 012°19'713.2
2017-Jun-18 00:00N 40°58' W 012°17'612.9
2017-Jun-17 23:30N 41°04' W 012°15'712.9
2017-Jun-17 22:56N 41°11' W 012°13'912.9
2017-Jun-17 22:15N 41°20' W 012°11'813.0
2017-Jun-17 21:36N 41°28' W 012°10'113.1
2017-Jun-17 21:30N 41°30' W 012°10'813.0
2017-Jun-17 20:52N 41°38' W 012°10'613.0
2017-Jun-17 20:23N 41°44' W 012°10'513.2
2017-Jun-17 20:00N 41°49' W 012°10'713.1
2017-Jun-17 19:30N 41°56' W 012°10'712.9
2017-Jun-17 19:00N 42°02' W 012°10'712.7
2017-Jun-17 18:28N 42°09' W 012°10'48111.0
2017-Jun-15 22:46N 48°56' W 006°04'411.8
2017-Jun-15 22:26N 48°59' W 006°00'511.2
2017-Jun-15 22:00N 49°01' W 005°54'610.8
2017-Jun-15 21:27N 49°05' W 005°46'710.7
2017-Jun-15 20:47N 49°08' W 005°37'910.4
2017-Jun-15 19:54N 49°13' W 005°25'1010.3
2017-Jun-15 18:57N 49°19' W 005°13'510.4
2017-Jun-15 18:27N 49°21' W 005°06'610.5
2017-Jun-15 17:55N 49°24' W 004°58'1411.1
2017-Jun-15 16:37N 49°29' W 004°38'411.6
2017-Jun-15 16:16N 49°31' W 004°32'511.7
2017-Jun-15 15:50N 49°33' W 004°25'1412.0
2017-Jun-15 14:41N 49°39' W 004°05'811.9
2017-Jun-15 14:00N 49°42' W 003°54'611.7
2017-Jun-15 13:30N 49°45' W 003°46'611.5
2017-Jun-15 13:00N 49°47' W 003°38'611.1
2017-Jun-15 12:30N 49°49' W 003°30'510.9
2017-Jun-15 12:00N 49°52' W 003°22'510.8
2017-Jun-15 11:30N 49°54' W 003°15'510.6
2017-Jun-15 11:00N 49°56' W 003°07'510.6
2017-Jun-15 10:30N 49°58' W 002°60'510.7
2017-Jun-15 10:00N 49°59' W 002°52'510.9
2017-Jun-15 09:30N 50°01' W 002°43'611.0
2017-Jun-15 09:00N 50°02' W 002°35'1111.7
2017-Jun-15 08:04N 50°06' W 002°19'112.4
2017-Jun-15 08:00N 50°06' W 002°18'612.8
2017-Jun-15 07:30N 50°08' W 002°08'713.5
2017-Jun-15 07:00N 50°10' W 001°58'714.1
2017-Jun-15 06:30N 50°12' W 001°48'714.6
2017-Jun-15 06:00N 50°14' W 001°37'714.9
2017-Jun-15 05:30N 50°16' W 001°25'715.0
2017-Jun-15 05:00N 50°18' W 001°14'815.0
2017-Jun-15 04:30N 50°19' W 001°03'714.5
2017-Jun-15 04:00N 50°21' W 000°52'713.5
2017-Jun-15 03:30N 50°23' W 000°41'713.1
2017-Jun-15 03:00N 50°25' W 000°32'612.8
2017-Jun-15 02:30N 50°27' W 000°22'612.4
2017-Jun-15 02:00N 50°28' W 000°13'611.8
2017-Jun-15 01:30N 50°30' W 000°04'611.3
2017-Jun-15 01:00N 50°32' E 000°05'611.2
2017-Jun-15 00:30N 50°33' E 000°13'510.9
2017-Jun-15 00:00N 50°35' E 000°22'511.0
2017-Jun-14 23:30N 50°36' E 000°30'611.5
2017-Jun-14 23:00N 50°39' E 000°38'612.3
2017-Jun-14 22:30N 50°42' E 000°46'713.2
2017-Jun-14 22:00N 50°46' E 000°55'714.0
2017-Jun-14 21:30N 50°50' E 001°04'714.4
2017-Jun-14 21:00N 50°54' E 001°14'714.7
2017-Jun-14 20:30N 50°58' E 001°23'714.5
2017-Jun-14 20:01N 51°03' E 001°30'713.6
2017-Jun-14 19:30N 51°08' E 001°38'613.0
2017-Jun-14 19:00N 51°13' E 001°45'612.4
2017-Jun-14 18:30N 51°18' E 001°50'612.0
2017-Jun-14 18:00N 51°23' E 001°56'611.6
2017-Jun-14 17:30N 51°28' E 002°01'611.4
2017-Jun-14 17:00N 51°33' E 002°07'611.4
2017-Jun-14 16:30N 51°37' E 002°13'611.3
2017-Jun-14 16:00N 51°41' E 002°18'611.6
2017-Jun-14 15:30N 51°46' E 002°24'612.0
2017-Jun-14 15:00N 51°51' E 002°30'1612.5
2017-Jun-14 13:43N 52°06' E 002°37'313.7
2017-Jun-14 13:30N 52°09' E 002°38'714.1
2017-Jun-14 13:00N 52°16' E 002°38'714.2
2017-Jun-14 12:30N 52°23' E 002°38'814.2
2017-Jun-14 11:57N 52°31' E 002°38'614.2
2017-Jun-14 11:30N 52°37' E 002°39'714.2
2017-Jun-14 11:00N 52°44' E 002°39'714.1
2017-Jun-14 10:30N 52°51' E 002°39'713.8
2017-Jun-14 10:00N 52°58' E 002°39'713.4
2017-Jun-14 09:31N 53°05' E 002°40'612.6
2017-Jun-14 09:00N 53°11' E 002°42'612.2
2017-Jun-14 08:30N 53°17' E 002°46'1312.3
2017-Jun-14 07:25N 53°30' E 002°53'714.0
2017-Jun-14 06:54N 53°36' E 002°58'613.1
2017-Jun-14 06:28N 53°42' E 003°02'6512.6
2017-Jun-14 01:17N 54°27' E 004°22'512.6
2017-Jun-14 00:53N 54°30' E 004°29'512.5
2017-Jun-14 00:30N 54°33' E 004°35'612.4
2017-Jun-14 00:00N 54°37' E 004°44'612.1
2017-Jun-13 23:29N 54°41' E 004°52'612.1
2017-Jun-13 22:58N 54°45' E 005°00'611.9
2017-Jun-13 22:29N 54°48' E 005°09'7212.2
2017-Jun-13 16:33N 55°46' E 006°23'112.5
2017-Jun-13 16:27N 55°47' E 006°24'612.5
2017-Jun-13 16:00N 55°52' E 006°29'16210.4
2017-Jun-13 00:30N 57°50' E 009°53'5 9.6
2017-Jun-13 00:00N 57°50' E 010°01'5 9.3
2017-Jun-12 23:30N 57°52' E 010°10'5 8.6
2017-Jun-12 22:56N 57°51' E 010°19'4 8.3
2017-Jun-12 22:28N 57°50' E 010°26'4 8.3
2017-Jun-12 21:59N 57°50' E 010°34'4 7.8
2017-Jun-12 21:29N 57°49' E 010°41'4 7.7
2017-Jun-12 21:00N 57°48' E 010°47'4 8.3
2017-Jun-12 20:30N 57°45' E 010°54'4 9.0
2017-Jun-12 20:00N 57°43' E 010°60'5 9.2
2017-Jun-12 19:30N 57°39' E 011°06'5 9.4
2017-Jun-12 19:00N 57°36' E 011°12'5 9.5
2017-Jun-12 18:30N 57°33' E 011°18'5 9.1
2017-Jun-12 18:00N 57°30' E 011°25'5 9.4
2017-Jun-12 17:30N 57°25' E 011°29'510.2
2017-Jun-12 17:00N 57°21' E 011°32'610.7
2017-Jun-12 16:29N 57°15' E 011°35'711.0
2017-Jun-12 15:50N 57°09' E 011°40'611.0
2017-Jun-12 15:19N 57°03' E 011°43'10511.4
2017-Jun-12 06:02N 55°20' E 011°02'214.4
2017-Jun-12 05:52N 55°18' E 011°03'514.2
2017-Jun-12 05:30N 55°13' E 011°06'714.4
2017-Jun-12 05:00N 55°06' E 011°03'714.8
2017-Jun-12 04:30N 54°59' E 010°58'714.2
2017-Jun-12 04:00N 54°54' E 010°51'714.2
2017-Jun-12 03:31N 54°47' E 010°49'510.9
2017-Jun-12 03:00N 54°41' E 010°47'4 8.2
2017-Jun-12 02:30N 54°39' E 010°53'4 8.6
2017-Jun-12 02:00N 54°37' E 010°59'4 7.7
2017-Jun-12 01:30N 54°36' E 011°06'5 9.3
2017-Jun-12 01:01N 54°35' E 011°13'5 9.1
2017-Jun-12 00:31N 54°33' E 011°21'4 8.7
2017-Jun-12 00:00N 54°31' E 011°27'4 8.7
2017-Jun-11 23:30N 54°30' E 011°34'6 8.6
2017-Jun-11 22:48N 54°27' E 011°44'3 8.6
2017-Jun-11 22:29N 54°26' E 011°48'15 7.5
2017-Jun-11 20:31N 54°30' E 012°13'0 8.5
2017-Jun-11 20:30N 54°30' E 012°13'4 8.7
2017-Jun-11 20:00N 54°34' E 012°15'4 8.2
2017-Jun-11 19:30N 54°37' E 012°20'4 8.8
2017-Jun-11 19:00N 54°40' E 012°26'7 8.6
2017-Jun-11 18:14N 54°44' E 012°36'2 8.9
2017-Jun-11 17:59N 54°45' E 012°39'5 8.7
2017-Jun-11 17:24N 54°47' E 012°47'33 9.1
2017-Jun-11 13:44N 54°60' E 013°41'2 9.2
2017-Jun-11 13:30N 55°01' E 013°44'4 8.9
2017-Jun-11 13:00N 55°02' E 013°51'4 8.7
2017-Jun-11 12:30N 55°04' E 013°58'4 8.8
2017-Jun-11 12:00N 55°06' E 014°05'5 9.6
2017-Jun-11 11:30N 55°10' E 014°10'510.5
2017-Jun-11 11:00N 55°14' E 014°17'4 8.9
2017-Jun-11 10:31N 55°17' E 014°21'5 9.0
2017-Jun-11 10:00N 55°21' E 014°26'4 8.9
2017-Jun-11 09:30N 55°24' E 014°32'4 8.9
2017-Jun-11 09:00N 55°27' E 014°38'4 8.8
2017-Jun-11 08:30N 55°29' E 014°44'4 8.9
2017-Jun-11 08:00N 55°31' E 014°51'4 8.8
2017-Jun-11 07:30N 55°33' E 014°58'4 8.9
2017-Jun-11 07:00N 55°35' E 015°05'4 8.9
2017-Jun-11 06:30N 55°37' E 015°12'4 8.8
2017-Jun-11 06:00N 55°39' E 015°19'5 9.4
2017-Jun-11 05:28N 55°40' E 015°28'510.9
2017-Jun-11 05:00N 55°40' E 015°37'6611.1
2017-Jun-10 23:03N 55°45' E 017°34'3010.9
2017-Jun-10 20:19N 55°32' E 018°21'411.1
2017-Jun-10 19:57N 55°33' E 018°28'711.2
2017-Jun-10 19:22N 55°34' E 018°40'511.1
2017-Jun-10 18:53N 55°35' E 018°49'411.1
2017-Jun-10 18:30N 55°36' E 018°56'611.1
2017-Jun-10 18:00N 55°38' E 019°06'611.2
2017-Jun-10 17:30N 55°38' E 019°16'  
Track history (hours):
 
Tides and Currents Weather Stations Pressure Air Temp Water Temp Dewpoint Dewpoint Depression Visibility Wind Speed Wind Dir Waves Ship Positions

Amber Lagoon

Last reported at 2017-Jun-20 14:29 UTC. Time now 2017-Jun-26 08:51 UTC.
Position N 27°60' W 016°25'.

Length 192 m; draft 10.9 m.

Type: Cargo ship. MMSI: 538090116.

Date/timePositionNaut miles runAvg speedWind from/ knotsBaromVisibWave heightAir tempDewpointWater temp
2017-Jun-20 14:29N 27°60' W 016°25'1413.7
2017-Jun-20 13:28N 28°09' W 016°13'813.7
2017-Jun-20 12:54N 28°15' W 016°07'513.7
2017-Jun-20 12:30N 28°19' W 016°03'713.6
2017-Jun-20 12:01N 28°24' W 015°58'713.0
2017-Jun-20 11:30N 28°29' W 015°53'612.7
2017-Jun-20 11:00N 28°34' W 015°49'612.4
2017-Jun-20 10:30N 28°39' W 015°45'613.0
2017-Jun-20 10:00N 28°46' W 015°44'612.8
2017-Jun-20 09:31N 28°52' W 015°42'713.0
2017-Jun-20 09:00N 28°58' W 015°40'613.0
2017-Jun-20 08:31N 29°04' W 015°38'612.9
2017-Jun-20 08:01N 29°11' W 015°36'712.9
2017-Jun-20 07:27N 29°18' W 015°35'1212.9
2017-Jun-20 06:33N 29°29' W 015°32'312.8
2017-Jun-20 06:18N 29°32' W 015°31'412.9
2017-Jun-20 06:01N 29°36' W 015°30'713.1
2017-Jun-20 05:30N 29°43' W 015°28'613.0
2017-Jun-20 05:00N 29°49' W 015°26'912.9
2017-Jun-20 04:20N 29°57' W 015°24'412.9
2017-Jun-20 04:00N 30°01' W 015°23'713.1
2017-Jun-20 03:30N 30°08' W 015°21'613.0
2017-Jun-20 03:00N 30°14' W 015°20'713.2
2017-Jun-20 02:30N 30°20' W 015°19'712.9
2017-Jun-20 01:59N 30°27' W 015°17'1012.9
2017-Jun-20 01:13N 30°37' W 015°14'313.1
2017-Jun-20 01:00N 30°39' W 015°13'2313.1
2017-Jun-19 23:15N 31°02' W 015°07'37812.9
2017-Jun-18 17:58N 37°10' W 013°25'613.1
2017-Jun-18 17:30N 37°16' W 013°23'713.0
2017-Jun-18 17:00N 37°22' W 013°21'613.1
2017-Jun-18 16:30N 37°28' W 013°20'712.9
2017-Jun-18 15:57N 37°35' W 013°18'613.0
2017-Jun-18 15:30N 37°41' W 013°16'713.2
2017-Jun-18 15:00N 37°47' W 013°14'1313.0
2017-Jun-18 14:00N 38°00' W 013°10'613.0
2017-Jun-18 13:30N 38°06' W 013°09'813.0
2017-Jun-18 12:55N 38°14' W 013°07'513.1
2017-Jun-18 12:30N 38°19' W 013°05'713.5
2017-Jun-18 12:00N 38°26' W 013°03'713.0
2017-Jun-18 11:30N 38°32' W 013°02'713.4
2017-Jun-18 11:00N 38°39' W 013°00'713.0
2017-Jun-18 10:30N 38°45' W 012°59'713.0
2017-Jun-18 10:00N 38°51' W 012°57'613.1
2017-Jun-18 09:30N 38°58' W 012°54'712.8
2017-Jun-18 09:00N 39°04' W 012°52'612.9
2017-Jun-18 08:30N 39°10' W 012°50'713.1
2017-Jun-18 08:00N 39°17' W 012°48'613.1
2017-Jun-18 07:30N 39°23' W 012°46'612.9
2017-Jun-18 07:00N 39°29' W 012°44'713.2
2017-Jun-18 06:30N 39°36' W 012°43'713.4
2017-Jun-18 06:00N 39°42' W 012°40'713.2
2017-Jun-18 05:30N 39°48' W 012°38'712.9
2017-Jun-18 05:00N 39°55' W 012°36'612.7
2017-Jun-18 04:30N 40°01' W 012°35'612.7
2017-Jun-18 04:00N 40°07' W 012°33'612.6
2017-Jun-18 03:30N 40°13' W 012°31'612.7
2017-Jun-18 03:00N 40°19' W 012°29'612.7
2017-Jun-18 02:30N 40°26' W 012°27'613.0
2017-Jun-18 02:00N 40°32' W 012°25'713.1
2017-Jun-18 01:30N 40°38' W 012°23'613.0
2017-Jun-18 01:00N 40°45' W 012°21'713.4
2017-Jun-18 00:30N 40°51' W 012°19'713.2
2017-Jun-18 00:00N 40°58' W 012°17'612.9
2017-Jun-17 23:30N 41°04' W 012°15'712.9
2017-Jun-17 22:56N 41°11' W 012°13'912.9
2017-Jun-17 22:15N 41°20' W 012°11'813.0
2017-Jun-17 21:36N 41°28' W 012°10'113.1
2017-Jun-17 21:30N 41°30' W 012°10'813.0
2017-Jun-17 20:52N 41°38' W 012°10'613.0
2017-Jun-17 20:23N 41°44' W 012°10'513.2
2017-Jun-17 20:00N 41°49' W 012°10'713.1
2017-Jun-17 19:30N 41°56' W 012°10'712.9
2017-Jun-17 19:00N 42°02' W 012°10'712.7
2017-Jun-17 18:28N 42°09' W 012°10'48111.0
2017-Jun-15 22:46N 48°56' W 006°04'411.8
2017-Jun-15 22:26N 48°59' W 006°00'511.2
2017-Jun-15 22:00N 49°01' W 005°54'610.8
2017-Jun-15 21:27N 49°05' W 005°46'710.7
2017-Jun-15 20:47N 49°08' W 005°37'910.4
2017-Jun-15 19:54N 49°13' W 005°25'1010.3
2017-Jun-15 18:57N 49°19' W 005°13'510.4
2017-Jun-15 18:27N 49°21' W 005°06'610.5
2017-Jun-15 17:55N 49°24' W 004°58'1411.1
2017-Jun-15 16:37N 49°29' W 004°38'411.6
2017-Jun-15 16:16N 49°31' W 004°32'511.7
2017-Jun-15 15:50N 49°33' W 004°25'1412.0
2017-Jun-15 14:41N 49°39' W 004°05'811.9
2017-Jun-15 14:00N 49°42' W 003°54'611.7
2017-Jun-15 13:30N 49°45' W 003°46'611.5
2017-Jun-15 13:00N 49°47' W 003°38'611.1
2017-Jun-15 12:30N 49°49' W 003°30'510.9
2017-Jun-15 12:00N 49°52' W 003°22'510.8
2017-Jun-15 11:30N 49°54' W 003°15'510.6
2017-Jun-15 11:00N 49°56' W 003°07'510.6
2017-Jun-15 10:30N 49°58' W 002°60'510.7
2017-Jun-15 10:00N 49°59' W 002°52'510.9
2017-Jun-15 09:30N 50°01' W 002°43'611.0
2017-Jun-15 09:00N 50°02' W 002°35'1111.7
2017-Jun-15 08:04N 50°06' W 002°19'112.4
2017-Jun-15 08:00N 50°06' W 002°18'612.8
2017-Jun-15 07:30N 50°08' W 002°08'713.5
2017-Jun-15 07:00N 50°10' W 001°58'714.1
2017-Jun-15 06:30N 50°12' W 001°48'714.6
2017-Jun-15 06:00N 50°14' W 001°37'714.9
2017-Jun-15 05:30N 50°16' W 001°25'715.0
2017-Jun-15 05:00N 50°18' W 001°14'815.0
2017-Jun-15 04:30N 50°19' W 001°03'714.5
2017-Jun-15 04:00N 50°21' W 000°52'713.5
2017-Jun-15 03:30N 50°23' W 000°41'713.1
2017-Jun-15 03:00N 50°25' W 000°32'612.8
2017-Jun-15 02:30N 50°27' W 000°22'612.4
2017-Jun-15 02:00N 50°28' W 000°13'611.8
2017-Jun-15 01:30N 50°30' W 000°04'611.3
2017-Jun-15 01:00N 50°32' E 000°05'611.2
2017-Jun-15 00:30N 50°33' E 000°13'510.9
2017-Jun-15 00:00N 50°35' E 000°22'511.0
2017-Jun-14 23:30N 50°36' E 000°30'611.5
2017-Jun-14 23:00N 50°39' E 000°38'612.3
2017-Jun-14 22:30N 50°42' E 000°46'713.2
2017-Jun-14 22:00N 50°46' E 000°55'714.0
2017-Jun-14 21:30N 50°50' E 001°04'714.4
2017-Jun-14 21:00N 50°54' E 001°14'714.7
2017-Jun-14 20:30N 50°58' E 001°23'714.5
2017-Jun-14 20:01N 51°03' E 001°30'713.6
2017-Jun-14 19:30N 51°08' E 001°38'613.0
2017-Jun-14 19:00N 51°13' E 001°45'612.4
2017-Jun-14 18:30N 51°18' E 001°50'612.0
2017-Jun-14 18:00N 51°23' E 001°56'611.6
2017-Jun-14 17:30N 51°28' E 002°01'611.4
2017-Jun-14 17:00N 51°33' E 002°07'611.4
2017-Jun-14 16:30N 51°37' E 002°13'611.3
2017-Jun-14 16:00N 51°41' E 002°18'611.6
2017-Jun-14 15:30N 51°46' E 002°24'612.0
2017-Jun-14 15:00N 51°51' E 002°30'1612.5
2017-Jun-14 13:43N 52°06' E 002°37'313.7
2017-Jun-14 13:30N 52°09' E 002°38'714.1
2017-Jun-14 13:00N 52°16' E 002°38'714.2
2017-Jun-14 12:30N 52°23' E 002°38'814.2
2017-Jun-14 11:57N 52°31' E 002°38'614.2
2017-Jun-14 11:30N 52°37' E 002°39'714.2
2017-Jun-14 11:00N 52°44' E 002°39'714.1
2017-Jun-14 10:30N 52°51' E 002°39'713.8
2017-Jun-14 10:00N 52°58' E 002°39'713.4
2017-Jun-14 09:31N 53°05' E 002°40'612.6
2017-Jun-14 09:00N 53°11' E 002°42'612.2
2017-Jun-14 08:30N 53°17' E 002°46'1312.3
2017-Jun-14 07:25N 53°30' E 002°53'714.0
2017-Jun-14 06:54N 53°36' E 002°58'613.1
2017-Jun-14 06:28N 53°42' E 003°02'6512.6
2017-Jun-14 01:17N 54°27' E 004°22'512.6
2017-Jun-14 00:53N 54°30' E 004°29'512.5
2017-Jun-14 00:30N 54°33' E 004°35'612.4
2017-Jun-14 00:00N 54°37' E 004°44'612.1
2017-Jun-13 23:29N 54°41' E 004°52'612.1
2017-Jun-13 22:58N 54°45' E 005°00'611.9
2017-Jun-13 22:29N 54°48' E 005°09'7212.2
2017-Jun-13 16:33N 55°46' E 006°23'112.5
2017-Jun-13 16:27N 55°47' E 006°24'612.5
2017-Jun-13 16:00N 55°52' E 006°29'16210.4
2017-Jun-13 00:30N 57°50' E 009°53'5 9.6
2017-Jun-13 00:00N 57°50' E 010°01'5 9.3
2017-Jun-12 23:30N 57°52' E 010°10'5 8.6
2017-Jun-12 22:56N 57°51' E 010°19'4 8.3
2017-Jun-12 22:28N 57°50' E 010°26'4 8.3
2017-Jun-12 21:59N 57°50' E 010°34'4 7.8
2017-Jun-12 21:29N 57°49' E 010°41'4 7.7
2017-Jun-12 21:00N 57°48' E 010°47'4 8.3
2017-Jun-12 20:30N 57°45' E 010°54'4 9.0
2017-Jun-12 20:00N 57°43' E 010°60'5 9.2
2017-Jun-12 19:30N 57°39' E 011°06'5 9.4
2017-Jun-12 19:00N 57°36' E 011°12'5 9.5
2017-Jun-12 18:30N 57°33' E 011°18'5 9.1
2017-Jun-12 18:00N 57°30' E 011°25'5 9.4
2017-Jun-12 17:30N 57°25' E 011°29'510.2
2017-Jun-12 17:00N 57°21' E 011°32'610.7
2017-Jun-12 16:29N 57°15' E 011°35'711.0
2017-Jun-12 15:50N 57°09' E 011°40'611.0
2017-Jun-12 15:19N 57°03' E 011°43'10511.4
2017-Jun-12 06:02N 55°20' E 011°02'214.4
2017-Jun-12 05:52N 55°18' E 011°03'514.2
2017-Jun-12 05:30N 55°13' E 011°06'714.4
2017-Jun-12 05:00N 55°06' E 011°03'714.8
2017-Jun-12 04:30N 54°59' E 010°58'714.2
2017-Jun-12 04:00N 54°54' E 010°51'714.2
2017-Jun-12 03:31N 54°47' E 010°49'510.9
2017-Jun-12 03:00N 54°41' E 010°47'4 8.2
2017-Jun-12 02:30N 54°39' E 010°53'4 8.6
2017-Jun-12 02:00N 54°37' E 010°59'4 7.7
2017-Jun-12 01:30N 54°36' E 011°06'5 9.3
2017-Jun-12 01:01N 54°35' E 011°13'5 9.1
2017-Jun-12 00:31N 54°33' E 011°21'4 8.7
2017-Jun-12 00:00N 54°31' E 011°27'4 8.7
2017-Jun-11 23:30N 54°30' E 011°34'6 8.6
2017-Jun-11 22:48N 54°27' E 011°44'3 8.6
2017-Jun-11 22:29N 54°26' E 011°48'15 7.5
2017-Jun-11 20:31N 54°30' E 012°13'0 8.5
2017-Jun-11 20:30N 54°30' E 012°13'4 8.7
2017-Jun-11 20:00N 54°34' E 012°15'4 8.2
2017-Jun-11 19:30N 54°37' E 012°20'4 8.8
2017-Jun-11 19:00N 54°40' E 012°26'7 8.6
2017-Jun-11 18:14N 54°44' E 012°36'2 8.9
2017-Jun-11 17:59N 54°45' E 012°39'5 8.7
2017-Jun-11 17:24N 54°47' E 012°47'33 9.1
2017-Jun-11 13:44N 54°60' E 013°41'2 9.2
2017-Jun-11 13:30N 55°01' E 013°44'4 8.9
2017-Jun-11 13:00N 55°02' E 013°51'4 8.7
2017-Jun-11 12:30N 55°04' E 013°58'4 8.8
2017-Jun-11 12:00N 55°06' E 014°05'5 9.6
2017-Jun-11 11:30N 55°10' E 014°10'510.5
2017-Jun-11 11:00N 55°14' E 014°17'4 8.9
2017-Jun-11 10:31N 55°17' E 014°21'5 9.0
2017-Jun-11 10:00N 55°21' E 014°26'4 8.9
2017-Jun-11 09:30N 55°24' E 014°32'4 8.9
2017-Jun-11 09:00N 55°27' E 014°38'4 8.8
2017-Jun-11 08:30N 55°29' E 014°44'4 8.9
2017-Jun-11 08:00N 55°31' E 014°51'4 8.8
2017-Jun-11 07:30N 55°33' E 014°58'4 8.9
2017-Jun-11 07:00N 55°35' E 015°05'4 8.9
2017-Jun-11 06:30N 55°37' E 015°12'4 8.8
2017-Jun-11 06:00N 55°39' E 015°19'5 9.4
2017-Jun-11 05:28N 55°40' E 015°28'510.9
2017-Jun-11 05:00N 55°40' E 015°37'6611.1
2017-Jun-10 23:03N 55°45' E 017°34'3010.9
2017-Jun-10 20:19N 55°32' E 018°21'411.1
2017-Jun-10 19:57N 55°33' E 018°28'711.2
2017-Jun-10 19:22N 55°34' E 018°40'511.1
2017-Jun-10 18:53N 55°35' E 018°49'411.1
2017-Jun-10 18:30N 55°36' E 018°56'611.1
2017-Jun-10 18:00N 55°38' E 019°06'611.2
2017-Jun-10 17:30N 55°38' E 019°16'  

Dump ship's entire track history